createdAt,value
2022-12-13T00:00:30.543Z,99.90
2022-12-13T00:02:57.205Z,99.90
2022-12-13T00:05:23.941Z,99.90
2022-12-13T00:07:50.828Z,99.90
2022-12-13T00:10:17.630Z,99.90
2022-12-13T00:12:44.406Z,99.90
2022-12-13T00:15:11.394Z,99.90
2022-12-13T00:17:38.182Z,99.90
2022-12-13T00:20:05.330Z,99.90
2022-12-13T00:22:32.080Z,99.90
2022-12-13T00:24:58.749Z,99.90
2022-12-13T00:27:30.161Z,99.90
2022-12-13T00:29:56.901Z,99.90
2022-12-13T00:32:23.704Z,99.90
2022-12-13T00:34:50.515Z,99.90
2022-12-13T00:37:17.244Z,99.90
2022-12-13T00:39:44.136Z,99.90
2022-12-13T00:42:10.820Z,99.90
2022-12-13T00:44:37.584Z,99.90
2022-12-13T00:47:04.308Z,99.90
2022-12-13T00:49:31.189Z,99.90
2022-12-13T00:51:57.858Z,99.90
2022-12-13T00:54:24.631Z,99.90
2022-12-13T00:56:51.588Z,99.90
2022-12-13T00:59:18.465Z,99.90
2022-12-13T01:01:45.464Z,99.90
2022-12-13T01:04:12.348Z,99.90
2022-12-13T01:06:40.979Z,99.90
2022-12-13T01:09:19.238Z,99.90
2022-12-13T01:11:46.719Z,99.90
2022-12-13T01:17:11.286Z,99.90
2022-12-13T01:19:38.030Z,99.90
2022-12-13T01:22:05.627Z,99.90
2022-12-13T01:24:32.522Z,99.90
2022-12-13T01:27:01.610Z,99.90
2022-12-13T01:29:28.421Z,99.90
2022-12-13T01:31:55.579Z,99.90
2022-12-13T01:34:26.216Z,99.90
2022-12-13T01:36:58.206Z,99.90
2022-12-13T01:39:26.546Z,99.90
2022-12-13T01:41:59.980Z,99.90
2022-12-13T01:44:45.546Z,99.90
2022-12-13T01:47:12.682Z,99.90
2022-12-13T01:49:39.527Z,99.90
2022-12-13T01:52:07.778Z,99.90
2022-12-13T01:54:37.590Z,99.90
2022-12-13T01:57:05.562Z,99.90
2022-12-13T01:59:33.652Z,99.90
2022-12-13T02:02:00.953Z,99.90
2022-12-13T02:04:34.242Z,99.90
2022-12-13T02:07:01.221Z,99.90
2022-12-13T02:09:28.193Z,99.90
2022-12-13T02:11:55.434Z,99.90
2022-12-13T02:14:22.181Z,99.90
2022-12-13T02:17:12.970Z,99.90
2022-12-13T02:19:51.912Z,99.90
2022-12-13T02:22:27.858Z,99.90
2022-12-13T02:25:08.564Z,99.90
2022-12-13T02:27:43.010Z,99.90
2022-12-13T02:30:16.196Z,99.90
2022-12-13T02:32:56.770Z,99.90
2022-12-13T02:35:23.525Z,99.90
2022-12-13T02:38:06.084Z,99.90
2022-12-13T02:40:35.122Z,99.90
2022-12-13T02:43:04.889Z,99.90
2022-12-13T02:45:34.836Z,99.90
2022-12-13T02:48:02.922Z,99.90
2022-12-13T02:50:30.578Z,99.90
2022-12-13T02:52:58.200Z,99.90
2022-12-13T02:55:28.096Z,99.90
2022-12-13T02:57:55.218Z,99.90
2022-12-13T03:00:24.835Z,99.90
2022-12-13T03:02:51.616Z,99.90
2022-12-13T03:05:47.651Z,99.90
2022-12-13T03:08:26.513Z,99.90
2022-12-13T03:11:03.355Z,99.90
2022-12-13T03:13:45.097Z,99.90
2022-12-13T03:16:31.329Z,99.90
2022-12-13T03:18:59.759Z,99.90
2022-12-13T03:21:26.586Z,99.90
2022-12-13T03:23:53.641Z,99.90
2022-12-13T03:26:22.068Z,99.90
2022-12-13T03:28:49.191Z,99.90
2022-12-13T03:31:16.191Z,99.90
2022-12-13T03:33:43.100Z,99.90
2022-12-13T03:36:10.284Z,99.90
2022-12-13T03:38:38.241Z,99.90
2022-12-13T03:41:10.805Z,99.90
2022-12-13T03:43:38.208Z,99.90
2022-12-13T03:46:05.052Z,99.90
2022-12-13T03:48:31.831Z,99.90
2022-12-13T03:50:58.622Z,99.90
2022-12-13T03:53:34.043Z,99.90
2022-12-13T03:56:04.952Z,99.90
2022-12-13T03:58:35.777Z,99.90
2022-12-13T04:01:04.380Z,99.90
2022-12-13T04:03:31.119Z,99.90
2022-12-13T04:05:57.752Z,99.90
2022-12-13T04:08:24.702Z,99.90
2022-12-13T04:10:51.409Z,99.90
2022-12-13T04:13:33.381Z,99.90
2022-12-13T04:16:00.473Z,99.90
2022-12-13T04:18:27.276Z,99.90
2022-12-13T04:20:54.041Z,99.90
2022-12-13T04:23:20.796Z,99.90
2022-12-13T04:25:47.590Z,99.90
2022-12-13T04:32:26.387Z,99.90
2022-12-13T04:35:14.838Z,99.90
2022-12-13T04:37:43.423Z,99.90
2022-12-13T04:40:14.506Z,99.90
2022-12-13T04:42:54.065Z,99.90
2022-12-13T04:45:22.550Z,99.90
2022-12-13T04:47:49.845Z,99.90
2022-12-13T04:50:16.909Z,99.90
2022-12-13T04:52:44.966Z,99.90
2022-12-13T04:55:11.967Z,99.90
2022-12-13T04:57:39.127Z,99.90
2022-12-13T05:00:07.207Z,99.90
2022-12-13T05:02:34.189Z,99.90
2022-12-13T05:05:00.974Z,99.90
2022-12-13T05:07:27.905Z,99.90
2022-12-13T05:09:54.735Z,99.90
2022-12-13T05:12:23.007Z,99.90
2022-12-13T05:14:52.040Z,99.90
2022-12-13T05:17:18.849Z,99.90
2022-12-13T05:19:45.570Z,99.90
2022-12-13T05:22:20.890Z,99.90
2022-12-13T05:24:48.229Z,99.90
2022-12-13T05:27:23.933Z,99.90
2022-12-13T05:30:02.130Z,99.90
2022-12-13T05:32:44.242Z,99.90
2022-12-13T05:35:22.919Z,99.90
2022-12-13T05:37:54.761Z,99.90
2022-12-13T05:40:25.775Z,99.90
2022-12-13T05:42:52.643Z,99.90
2022-12-13T05:45:29.325Z,99.90
2022-12-13T05:47:56.121Z,99.90
2022-12-13T05:50:23.121Z,99.90
2022-12-13T05:52:50.075Z,99.90
2022-12-13T05:55:17.700Z,99.90
2022-12-13T05:57:50.008Z,99.90
2022-12-13T06:00:28.616Z,99.90
2022-12-13T06:03:01.910Z,99.90
2022-12-13T06:05:29.533Z,99.90
2022-12-13T06:07:57.612Z,99.90
2022-12-13T06:10:24.994Z,99.90
2022-12-13T06:13:21.498Z,99.90
2022-12-13T06:18:34.431Z,99.90
2022-12-13T06:21:03.322Z,99.90
2022-12-13T06:23:30.891Z,99.90
2022-12-13T06:25:57.658Z,99.90
2022-12-13T06:28:26.758Z,99.90
2022-12-13T06:30:59.043Z,99.90
2022-12-13T06:33:25.958Z,99.90
2022-12-13T06:35:55.791Z,99.90
2022-12-13T06:38:31.791Z,99.90
2022-12-13T06:41:09.268Z,99.90
2022-12-13T06:43:36.668Z,99.90
2022-12-13T06:46:05.064Z,99.90
2022-12-13T06:48:31.932Z,99.90
2022-12-13T06:51:03.394Z,99.90
2022-12-13T06:53:30.344Z,99.90
2022-12-13T06:56:07.673Z,99.90
2022-12-13T06:58:34.983Z,99.90
2022-12-13T07:01:07.003Z,99.90
2022-12-13T07:03:42.347Z,99.90
2022-12-13T07:06:14.283Z,99.90
2022-12-13T07:08:41.597Z,99.90
2022-12-13T07:11:08.966Z,99.90
2022-12-13T07:13:36.427Z,99.90
2022-12-13T07:16:15.974Z,99.90
2022-12-13T07:22:12.620Z,99.90
2022-12-13T07:24:39.835Z,99.90
2022-12-13T07:27:09.485Z,99.90
2022-12-13T07:32:19.865Z,99.90
2022-12-13T07:34:55.106Z,99.90
2022-12-13T07:37:29.967Z,99.90
2022-12-13T07:42:41.163Z,99.90
2022-12-13T07:45:13.571Z,99.90
2022-12-13T07:47:40.659Z,99.90
2022-12-13T07:50:23.753Z,99.90
2022-12-13T07:52:53.066Z,99.90
2022-12-13T07:55:33.357Z,99.90
2022-12-13T07:58:10.948Z,99.90
2022-12-13T08:00:46.185Z,99.90
2022-12-13T08:03:24.422Z,99.90
2022-12-13T08:06:19.995Z,99.90
2022-12-13T08:08:46.853Z,99.90
2022-12-13T08:11:15.707Z,99.90
2022-12-13T08:13:42.409Z,99.90
2022-12-13T08:16:25.971Z,99.90
2022-12-13T08:19:02.043Z,99.90
2022-12-13T08:21:53.535Z,99.90
2022-12-13T08:24:20.076Z,99.90
2022-12-13T08:26:46.877Z,99.90
2022-12-13T08:29:13.708Z,99.90
2022-12-13T08:31:50.456Z,99.90
2022-12-13T08:34:17.201Z,99.90
2022-12-13T08:36:43.956Z,99.90
2022-12-13T08:39:15.010Z,99.90
2022-12-13T08:41:44.010Z,99.90
2022-12-13T08:44:10.833Z,99.90
2022-12-13T08:46:37.666Z,99.90
2022-12-13T08:49:04.481Z,99.90
2022-12-13T08:51:35.642Z,99.90
2022-12-13T08:54:10.570Z,99.90
2022-12-13T08:56:38.256Z,99.90
2022-12-13T08:59:05.055Z,99.90
2022-12-13T09:01:31.865Z,99.90
2022-12-13T09:03:58.642Z,99.90
2022-12-13T09:06:25.404Z,99.90
2022-12-13T09:08:55.344Z,99.90
2022-12-13T09:11:34.479Z,99.90
2022-12-13T09:14:03.389Z,99.90
2022-12-13T09:16:35.806Z,99.90
2022-12-13T09:19:24.769Z,99.90
2022-12-13T09:21:52.533Z,99.90
2022-12-13T09:24:29.122Z,99.90
2022-12-13T09:27:09.175Z,99.90
2022-12-13T09:29:37.459Z,99.90
2022-12-13T09:32:04.391Z,99.90
2022-12-13T09:34:33.078Z,99.90
2022-12-13T09:37:01.692Z,99.90
2022-12-13T09:39:29.090Z,99.90
2022-12-13T09:42:00.665Z,99.90
2022-12-13T09:44:32.205Z,99.90
2022-12-13T09:47:01.514Z,99.90
2022-12-13T09:49:41.932Z,99.90
2022-12-13T09:52:22.021Z,99.90
2022-12-13T09:54:50.774Z,99.90
2022-12-13T09:57:33.249Z,99.90
2022-12-13T10:00:02.454Z,99.90
2022-12-13T10:02:32.011Z,99.90
2022-12-13T10:05:22.488Z,99.90
2022-12-13T10:07:52.049Z,99.90
2022-12-13T10:10:19.610Z,99.90
2022-12-13T10:12:49.948Z,99.90
2022-12-13T10:15:22.036Z,99.90
2022-12-13T10:17:55.142Z,99.90
2022-12-13T10:20:31.028Z,98.40
2022-12-13T10:25:45.903Z,99.90
2022-12-13T10:28:19.639Z,99.90
2022-12-13T10:30:47.025Z,99.50
2022-12-13T10:33:29.431Z,96.30
2022-12-13T10:36:26.504Z,97.30
2022-12-13T10:38:53.519Z,92.10
2022-12-13T10:41:29.458Z,94.30
2022-12-13T10:44:12.268Z,95.00
2022-12-13T10:46:40.651Z,93.20
2022-12-13T10:49:21.100Z,94.90
2022-12-13T10:51:49.229Z,91.70
2022-12-13T10:54:48.461Z,93.50
2022-12-13T11:08:14.967Z,88.20
2022-12-13T11:10:41.872Z,90.10
2022-12-13T11:13:08.865Z,90.00
2022-12-13T11:15:39.374Z,88.60
2022-12-13T11:18:07.541Z,86.70
2022-12-13T14:05:16.162Z,88.10
2022-12-13T14:22:13.824Z,90.70
2022-12-13T14:39:25.001Z,95.50
2022-12-13T14:42:25.527Z,99.90
2022-12-13T17:20:09.340Z,99.90
2022-12-13T17:22:37.012Z,99.90
2022-12-13T18:29:35.122Z,99.90
2022-12-13T18:47:05.960Z,99.90
2022-12-13T19:19:16.842Z,99.90
2022-12-13T19:34:25.745Z,99.90
2022-12-13T19:36:52.706Z,99.90
2022-12-13T19:49:13.040Z,99.90
2022-12-13T19:51:40.224Z,99.90
2022-12-13T19:54:07.550Z,99.90
2022-12-13T19:56:36.692Z,99.90
2022-12-13T19:59:03.905Z,99.90
2022-12-13T20:01:30.846Z,99.90
2022-12-13T20:03:57.775Z,99.90
2022-12-13T20:06:26.645Z,99.90
2022-12-13T20:08:55.269Z,99.90
2022-12-13T20:11:23.236Z,99.90
2022-12-13T20:13:52.982Z,99.90
2022-12-13T20:16:21.592Z,99.90
2022-12-13T20:18:53.386Z,99.90
2022-12-13T20:21:20.316Z,99.90
2022-12-13T20:23:51.756Z,99.90
2022-12-13T20:26:22.439Z,99.90
2022-12-13T20:28:49.992Z,99.90
2022-12-13T20:31:18.723Z,99.90
2022-12-13T20:33:45.955Z,99.90
2022-12-13T20:36:28.187Z,99.90
2022-12-13T20:38:56.610Z,99.90
2022-12-13T20:41:26.435Z,99.90
2022-12-13T20:43:54.229Z,99.90
2022-12-13T20:46:21.570Z,99.90
2022-12-13T20:48:48.943Z,99.90
2022-12-13T20:51:17.496Z,99.90
2022-12-13T20:53:45.480Z,99.90
2022-12-13T20:56:19.696Z,99.90
2022-12-13T20:58:47.332Z,99.90
2022-12-13T21:01:15.987Z,99.90
2022-12-13T21:03:43.096Z,99.90
2022-12-13T21:06:09.981Z,99.90
2022-12-13T21:08:52.039Z,99.90
2022-12-13T21:11:26.145Z,99.90
2022-12-13T21:13:52.969Z,99.90
2022-12-13T21:16:19.825Z,99.90
2022-12-13T21:18:46.708Z,99.90
2022-12-13T21:21:13.505Z,99.90
2022-12-13T21:23:40.223Z,99.90
2022-12-13T21:26:06.938Z,99.90
2022-12-13T21:28:33.791Z,99.90
2022-12-13T21:31:01.067Z,99.90
2022-12-13T21:33:28.799Z,99.90
2022-12-13T21:35:56.213Z,99.90
2022-12-13T21:38:23.149Z,99.90
2022-12-13T21:40:50.230Z,99.90
2022-12-13T21:43:17.407Z,99.90
2022-12-13T21:45:44.533Z,99.90
2022-12-13T21:48:11.464Z,99.90
2022-12-13T21:50:38.153Z,99.90
2022-12-13T21:53:05.178Z,99.90
2022-12-13T21:55:40.455Z,99.90
2022-12-13T21:58:27.899Z,99.90
2022-12-13T22:00:55.011Z,99.90
2022-12-13T22:03:21.775Z,99.90
2022-12-13T22:05:48.574Z,99.90
2022-12-13T22:08:15.344Z,99.90
2022-12-13T22:11:02.322Z,99.90
2022-12-13T22:13:29.275Z,99.90
2022-12-13T22:15:56.251Z,99.90
2022-12-13T22:18:23.477Z,99.90
2022-12-13T22:20:57.286Z,99.90
2022-12-13T22:23:24.227Z,99.90
2022-12-13T22:25:54.528Z,99.90
2022-12-13T22:28:21.643Z,99.90
2022-12-13T22:30:54.632Z,99.90
2022-12-13T22:33:24.639Z,99.90
2022-12-13T22:35:51.800Z,99.90
2022-12-13T22:38:18.898Z,99.90
2022-12-13T22:40:45.911Z,99.90
2022-12-13T22:43:17.385Z,99.90
2022-12-13T22:45:47.363Z,99.90
2022-12-13T22:48:15.192Z,99.90
2022-12-13T22:50:41.895Z,99.90
2022-12-13T22:53:08.911Z,99.90
2022-12-13T22:55:35.860Z,99.90
2022-12-13T22:58:02.658Z,99.90
2022-12-13T23:00:29.657Z,99.90
2022-12-13T23:02:58.991Z,99.90
2022-12-13T23:05:25.780Z,99.90
2022-12-13T23:07:52.671Z,99.90
2022-12-13T23:10:44.191Z,99.90
2022-12-13T23:13:13.291Z,99.90
2022-12-13T23:15:44.558Z,99.90
2022-12-13T23:18:14.491Z,99.90
2022-12-13T23:20:41.429Z,99.90
2022-12-13T23:23:08.252Z,99.90
2022-12-13T23:25:35.699Z,99.90
2022-12-13T23:28:04.459Z,99.90
2022-12-13T23:30:31.333Z,99.90
2022-12-13T23:32:58.093Z,99.90
2022-12-13T23:35:25.512Z,99.90
2022-12-13T23:37:52.365Z,99.90
2022-12-13T23:40:19.234Z,99.90
2022-12-13T23:42:45.994Z,99.90
2022-12-13T23:45:12.946Z,99.90
2022-12-13T23:47:39.755Z,99.90
2022-12-13T23:50:06.975Z,99.90
2022-12-13T23:52:33.779Z,99.90
2022-12-13T23:55:00.555Z,99.90
2022-12-13T23:57:27.565Z,99.90
2022-12-13T23:59:54.348Z,99.90
